createdAt,value
2019-02-21T00:00:43.143Z,1010.83
2019-02-21T00:01:43.138Z,1010.91
2019-02-21T00:02:43.135Z,1010.97
2019-02-21T00:03:43.118Z,1010.92
2019-02-21T00:04:43.108Z,1010.96
2019-02-21T00:05:43.084Z,1010.99
2019-02-21T00:06:43.081Z,1010.94
2019-02-21T00:07:43.072Z,1011.00
2019-02-21T00:08:43.094Z,1010.99
2019-02-21T00:09:43.048Z,1010.96
2019-02-21T00:10:43.041Z,1010.96
2019-02-21T00:11:43.028Z,1010.94
2019-02-21T00:12:43.010Z,1010.96
2019-02-21T00:13:43.002Z,1010.95
2019-02-21T00:14:43.030Z,1010.92
2019-02-21T00:15:43.015Z,1010.97
2019-02-21T00:16:42.967Z,1010.93
2019-02-21T00:17:42.964Z,1010.99
2019-02-21T00:18:42.967Z,1010.97
2019-02-21T00:19:42.942Z,1010.98
2019-02-21T00:20:42.932Z,1010.93
2019-02-21T00:21:42.956Z,1010.96
2019-02-21T00:22:42.905Z,1010.92
2019-02-21T00:23:42.892Z,1010.87
2019-02-21T00:24:43.019Z,1010.92
2019-02-21T00:25:42.877Z,1010.88
2019-02-21T00:26:44.285Z,1010.90
2019-02-21T00:27:42.881Z,1010.97
2019-02-21T00:28:42.848Z,1010.97
2019-02-21T00:29:42.846Z,1011.00
2019-02-21T00:30:42.833Z,1010.99
2019-02-21T00:31:42.807Z,1011.02
2019-02-21T00:32:42.829Z,1011.00
2019-02-21T00:33:42.884Z,1010.97
2019-02-21T00:34:42.805Z,1010.94
2019-02-21T00:35:42.764Z,1010.97
2019-02-21T00:36:42.755Z,1010.98
2019-02-21T00:37:42.749Z,1010.98
2019-02-21T00:38:42.740Z,1010.94
2019-02-21T00:39:42.777Z,1010.96
2019-02-21T00:40:42.721Z,1011.01
2019-02-21T00:41:42.708Z,1010.97
2019-02-21T00:42:42.694Z,1010.96
2019-02-21T00:43:42.683Z,1010.93
2019-02-21T00:44:42.679Z,1010.96
2019-02-21T00:45:42.709Z,1010.95
2019-02-21T00:46:42.658Z,1010.98
2019-02-21T00:47:42.646Z,1010.95
2019-02-21T00:48:42.637Z,1010.92
2019-02-21T00:49:42.619Z,1010.94
2019-02-21T00:50:42.632Z,1010.93
2019-02-21T00:51:42.676Z,1010.88
2019-02-21T00:52:42.594Z,1010.87
2019-02-21T00:53:42.579Z,1010.89
2019-02-21T00:54:42.565Z,1010.94
2019-02-21T00:55:42.553Z,1010.96
2019-02-21T00:56:42.556Z,1010.91
2019-02-21T00:57:42.551Z,1010.94
2019-02-21T00:58:42.531Z,1010.97
2019-02-21T00:59:42.585Z,1010.97
2019-02-21T01:00:46.645Z,1010.96
2019-02-21T01:01:42.513Z,1010.95
2019-02-21T01:02:42.488Z,1010.93
2019-02-21T01:03:42.470Z,1010.94
2019-02-21T01:04:42.466Z,1010.93
2019-02-21T01:05:42.454Z,1010.92
2019-02-21T01:06:42.483Z,1010.98
2019-02-21T01:07:42.438Z,1010.94
2019-02-21T01:08:42.421Z,1010.93
2019-02-21T01:09:42.404Z,1010.91
2019-02-21T01:10:42.398Z,1010.92
2019-02-21T01:11:42.395Z,1010.90
2019-02-21T01:12:42.417Z,1010.96
2019-02-21T01:13:42.415Z,1010.95
2019-02-21T01:14:42.352Z,1010.92
2019-02-21T01:15:42.338Z,1010.97
2019-02-21T01:16:42.329Z,1010.95
2019-02-21T01:17:42.330Z,1010.91
2019-02-21T01:18:42.316Z,1010.93
2019-02-21T01:19:42.317Z,1010.87
2019-02-21T01:20:42.305Z,1010.90
2019-02-21T01:21:42.275Z,1010.92
2019-02-21T01:22:42.279Z,1010.94
2019-02-21T01:23:42.261Z,1010.93
2019-02-21T01:24:42.249Z,1010.90
2019-02-21T01:25:42.240Z,1010.90
2019-02-21T01:26:42.270Z,1010.90
2019-02-21T01:27:42.223Z,1010.93
2019-02-21T01:28:42.198Z,1010.96
2019-02-21T01:29:42.195Z,1010.98
2019-02-21T01:30:42.183Z,1010.95
2019-02-21T01:31:42.179Z,1010.99
2019-02-21T01:32:42.178Z,1011.00
2019-02-21T01:33:42.161Z,1011.03
2019-02-21T01:34:42.135Z,1011.00
2019-02-21T01:35:42.122Z,1011.00
2019-02-21T01:36:42.122Z,1010.92
2019-02-21T01:37:42.109Z,1010.94
2019-02-21T01:38:42.132Z,1010.90
2019-02-21T01:39:42.113Z,1010.96
2019-02-21T01:40:42.065Z,1010.95
2019-02-21T01:41:42.058Z,1010.96
2019-02-21T01:42:42.062Z,1010.99
2019-02-21T01:43:42.049Z,1010.96
2019-02-21T01:44:42.072Z,1010.99
2019-02-21T01:45:42.032Z,1011.05
2019-02-21T01:46:42.021Z,1011.02
2019-02-21T01:47:42.009Z,1010.96
2019-02-21T01:48:41.988Z,1010.98
2019-02-21T01:49:41.985Z,1011.03
2019-02-21T01:50:41.978Z,1011.02
2019-02-21T01:51:41.968Z,1011.00
2019-02-21T01:52:41.948Z,1010.98
2019-02-21T01:53:41.928Z,1010.97
2019-02-21T01:54:41.924Z,1010.98
2019-02-21T01:55:41.912Z,1011.00
2019-02-21T01:56:41.912Z,1011.01
2019-02-21T01:57:41.892Z,1011.00
2019-02-21T01:58:41.899Z,1011.01
2019-02-21T01:59:41.863Z,1011.05
2019-02-21T02:00:41.857Z,1011.03
2019-02-21T02:01:41.857Z,1011.01
2019-02-21T02:02:41.848Z,1011.02
2019-02-21T02:03:41.827Z,1011.08
2019-02-21T02:04:41.863Z,1011.05
2019-02-21T02:05:41.830Z,1011.09
2019-02-21T02:06:41.789Z,1011.12
2019-02-21T02:07:41.783Z,1011.06
2019-02-21T02:08:41.769Z,1011.06
2019-02-21T02:09:41.761Z,1011.04
2019-02-21T02:10:41.781Z,1011.07
2019-02-21T02:11:41.737Z,1011.03
2019-02-21T02:12:41.732Z,1011.09
2019-02-21T02:13:41.711Z,1011.11
2019-02-21T02:14:41.707Z,1011.09
2019-02-21T02:15:41.712Z,1011.12
2019-02-21T02:16:41.712Z,1011.04
2019-02-21T02:17:41.686Z,1011.07
2019-02-21T02:18:41.657Z,1011.07
2019-02-21T02:19:41.646Z,1011.12
2019-02-21T02:20:41.648Z,1011.12
2019-02-21T02:21:41.625Z,1011.09
2019-02-21T02:22:41.631Z,1011.10
2019-02-21T02:23:41.617Z,1011.07
2019-02-21T02:24:41.602Z,1011.08
2019-02-21T02:25:41.592Z,1011.05
2019-02-21T02:26:41.578Z,1011.03
2019-02-21T02:27:41.583Z,1011.00
2019-02-21T02:28:41.569Z,1011.07
2019-02-21T02:29:41.575Z,1011.04
2019-02-21T02:30:41.556Z,1011.04
2019-02-21T02:31:41.520Z,1011.03
2019-02-21T02:32:41.525Z,1011.00
2019-02-21T02:33:41.502Z,1011.00
2019-02-21T02:34:41.494Z,1011.02
2019-02-21T02:35:41.522Z,1010.99
2019-02-21T02:36:41.487Z,1011.00
2019-02-21T02:37:41.461Z,1010.99
2019-02-21T02:38:41.447Z,1010.96
2019-02-21T02:39:41.437Z,1010.97
2019-02-21T02:40:41.444Z,1010.95
2019-02-21T02:41:41.418Z,1010.95
2019-02-21T02:42:41.429Z,1011.00
2019-02-21T02:43:41.392Z,1011.06
2019-02-21T02:44:41.392Z,1011.05
2019-02-21T02:45:41.381Z,1011.03
2019-02-21T02:46:41.381Z,1010.98
2019-02-21T02:47:41.354Z,1011.00
2019-02-21T02:48:41.346Z,1010.98
2019-02-21T02:49:41.351Z,1010.95
2019-02-21T02:50:41.314Z,1010.92
2019-02-21T02:51:41.320Z,1010.98
2019-02-21T02:52:41.299Z,1010.98
2019-02-21T02:53:41.282Z,1011.03
2019-02-21T02:54:41.284Z,1010.98
2019-02-21T02:55:41.328Z,1010.99
2019-02-21T02:56:41.268Z,1010.97
2019-02-21T02:57:41.249Z,1011.01
2019-02-21T02:58:41.270Z,1011.02
2019-02-21T02:59:41.375Z,1011.02
2019-02-21T03:00:41.219Z,1011.09
2019-02-21T03:01:41.265Z,1011.07
2019-02-21T03:02:41.198Z,1011.06
2019-02-21T03:03:41.206Z,1011.08
2019-02-21T03:04:41.174Z,1011.12
2019-02-21T03:05:41.156Z,1011.07
2019-02-21T03:06:41.166Z,1011.06
2019-02-21T03:07:41.168Z,1011.06
2019-02-21T03:08:41.137Z,1011.04
2019-02-21T03:09:41.143Z,1011.08
2019-02-21T03:10:41.139Z,1011.08
2019-02-21T03:11:41.123Z,1011.10
2019-02-21T03:12:41.127Z,1011.12
2019-02-21T03:13:41.082Z,1011.14
2019-02-21T03:14:41.090Z,1011.13
2019-02-21T03:15:41.054Z,1011.13
2019-02-21T03:16:41.042Z,1011.11
2019-02-21T03:17:41.081Z,1011.07
2019-02-21T03:18:41.065Z,1011.10
2019-02-21T03:19:41.014Z,1011.13
2019-02-21T03:20:41.004Z,1011.09
2019-02-21T03:21:41.009Z,1011.11
2019-02-21T03:22:40.979Z,1011.10
2019-02-21T03:23:41.013Z,1011.13
2019-02-21T03:24:40.960Z,1011.13
2019-02-21T03:25:40.945Z,1011.10
2019-02-21T03:26:40.949Z,1011.02
2019-02-21T03:27:40.955Z,1011.05
2019-02-21T03:28:40.955Z,1011.05
2019-02-21T03:29:40.907Z,1011.05
2019-02-21T03:30:40.913Z,1011.05
2019-02-21T03:31:53.389Z,1011.07
2019-02-21T03:32:41.930Z,1011.04
2019-02-21T03:33:40.889Z,1011.04
2019-02-21T03:34:40.867Z,1011.05
2019-02-21T03:35:40.886Z,1011.09
2019-02-21T03:36:40.830Z,1011.06
2019-02-21T03:37:40.817Z,1011.08
2019-02-21T03:38:40.813Z,1011.07
2019-02-21T03:39:40.820Z,1011.11
2019-02-21T03:40:40.788Z,1011.09
2019-02-21T03:41:40.793Z,1011.07
2019-02-21T03:42:40.761Z,1011.10
2019-02-21T03:43:40.760Z,1011.09
2019-02-21T03:44:40.744Z,1011.11
2019-02-21T03:45:40.752Z,1011.08
2019-02-21T03:46:40.725Z,1011.09
2019-02-21T03:47:40.737Z,1011.16
2019-02-21T03:48:40.711Z,1011.12
2019-02-21T03:49:40.703Z,1011.11
2019-02-21T03:50:40.761Z,1011.13
2019-02-21T03:51:40.674Z,1011.14
2019-02-21T03:52:40.659Z,1011.16
2019-02-21T03:53:40.671Z,1011.15
2019-02-21T03:54:40.633Z,1011.17
2019-02-21T03:55:40.646Z,1011.15
2019-02-21T03:56:40.627Z,1011.18
2019-02-21T03:57:40.613Z,1011.14
2019-02-21T03:58:40.600Z,1011.15
2019-02-21T03:59:40.601Z,1011.09
2019-02-21T04:00:40.572Z,1011.09
2019-02-21T04:01:40.573Z,1011.06
2019-02-21T04:02:40.572Z,1011.09
2019-02-21T04:03:40.559Z,1011.14
2019-02-21T04:04:40.532Z,1011.17
2019-02-21T04:05:40.540Z,1011.15
2019-02-21T04:06:40.523Z,1011.13
2019-02-21T04:07:40.494Z,1011.14
2019-02-21T04:08:40.487Z,1011.10
2019-02-21T04:09:40.486Z,1011.11
2019-02-21T04:10:40.477Z,1011.14
2019-02-21T04:11:40.457Z,1011.10
2019-02-21T04:12:40.464Z,1011.08
2019-02-21T04:13:40.491Z,1011.12
2019-02-21T04:14:40.432Z,1011.10
2019-02-21T04:15:40.440Z,1011.09
2019-02-21T04:16:40.402Z,1011.13
2019-02-21T04:17:40.397Z,1011.15
2019-02-21T04:18:40.377Z,1011.14
2019-02-21T04:19:40.427Z,1011.14
2019-02-21T04:20:40.353Z,1011.11
2019-02-21T04:21:40.345Z,1011.09
2019-02-21T04:22:40.337Z,1011.18
2019-02-21T04:23:40.328Z,1011.17
2019-02-21T04:24:40.327Z,1011.20
2019-02-21T04:25:40.345Z,1011.18
2019-02-21T04:26:40.289Z,1011.16
2019-02-21T04:27:40.279Z,1011.14
2019-02-21T04:28:40.276Z,1011.18
2019-02-21T04:29:40.250Z,1011.16
2019-02-21T04:30:40.275Z,1011.18
2019-02-21T04:31:40.241Z,1011.19
2019-02-21T04:32:40.298Z,1011.19
2019-02-21T04:33:40.242Z,1011.18
2019-02-21T04:34:40.234Z,1011.15
2019-02-21T04:35:40.261Z,1011.12
2019-02-21T04:36:40.180Z,1011.11
2019-02-21T04:37:40.171Z,1011.07
2019-02-21T04:38:40.158Z,1011.03
2019-02-21T04:39:40.153Z,1011.02
2019-02-21T04:40:40.190Z,1011.01
2019-02-21T04:41:40.155Z,1011.06
2019-02-21T04:42:40.132Z,1011.04
2019-02-21T04:43:40.106Z,1011.00
2019-02-21T04:44:40.095Z,1011.01
2019-02-21T04:45:40.086Z,1011.05
2019-02-21T04:46:40.064Z,1011.02
2019-02-21T04:47:40.083Z,1011.07
2019-02-21T04:48:40.072Z,1011.09
2019-02-21T04:49:40.043Z,1011.03
2019-02-21T04:50:40.022Z,1011.04
2019-02-21T04:51:40.031Z,1011.01
2019-02-21T04:52:40.001Z,1011.01
2019-02-21T04:53:40.028Z,1010.99
2019-02-21T04:54:39.986Z,1011.00
2019-02-21T04:55:39.973Z,1011.00
2019-02-21T04:56:39.961Z,1010.98
2019-02-21T04:57:39.971Z,1010.97
2019-02-21T04:58:39.933Z,1011.01
2019-02-21T04:59:39.943Z,1011.00
2019-02-21T05:00:39.915Z,1011.00
2019-02-21T05:01:40.444Z,1011.01
2019-02-21T05:02:39.896Z,1011.04
2019-02-21T05:03:39.898Z,1011.00
2019-02-21T05:04:39.968Z,1011.04
2019-02-21T05:05:39.859Z,1010.99
2019-02-21T05:06:39.856Z,1010.96
2019-02-21T05:07:39.869Z,1010.97
2019-02-21T05:08:39.835Z,1010.93
2019-02-21T05:09:39.823Z,1010.94
2019-02-21T05:10:39.818Z,1010.98
2019-02-21T05:11:39.822Z,1010.95
2019-02-21T05:12:39.802Z,1010.97
2019-02-21T05:13:39.769Z,1010.96
2019-02-21T05:14:39.774Z,1011.00
2019-02-21T05:15:39.756Z,1011.00
2019-02-21T05:16:39.740Z,1010.94
2019-02-21T05:17:39.798Z,1010.96
2019-02-21T05:18:39.756Z,1010.91
2019-02-21T05:19:39.768Z,1010.92
2019-02-21T05:20:39.702Z,1010.92
2019-02-21T05:21:39.687Z,1010.90
2019-02-21T05:22:39.669Z,1010.90
2019-02-21T05:23:39.661Z,1010.90
2019-02-21T05:24:39.676Z,1010.87
2019-02-21T05:25:39.663Z,1010.89
2019-02-21T05:26:39.635Z,1010.89
2019-02-21T05:27:39.638Z,1010.87
2019-02-21T05:28:41.270Z,1010.79
2019-02-21T05:29:39.607Z,1010.87
2019-02-21T05:30:39.595Z,1010.88
2019-02-21T05:31:39.593Z,1010.87
2019-02-21T05:32:41.183Z,1010.85
2019-02-21T05:33:39.565Z,1010.89
2019-02-21T05:34:39.555Z,1010.90
2019-02-21T05:35:39.538Z,1010.85
2019-02-21T05:36:39.540Z,1010.87
2019-02-21T05:37:39.526Z,1010.92
2019-02-21T05:38:39.505Z,1010.88
2019-02-21T05:39:39.495Z,1010.92
2019-02-21T05:40:41.971Z,1010.92
2019-02-21T05:41:39.474Z,1010.97
2019-02-21T05:42:39.475Z,1010.96
2019-02-21T05:43:39.453Z,1010.93
2019-02-21T05:44:39.435Z,1010.92
2019-02-21T05:45:39.449Z,1010.90
2019-02-21T05:46:39.422Z,1010.92
2019-02-21T05:47:39.420Z,1010.88
2019-02-21T05:48:40.310Z,1010.93
2019-02-21T05:49:39.431Z,1010.91
2019-02-21T05:50:39.371Z,1010.93
2019-02-21T05:51:39.359Z,1010.94
2019-02-21T05:52:39.350Z,1010.97
2019-02-21T05:53:39.365Z,1010.97
2019-02-21T05:54:39.335Z,1011.00
2019-02-21T05:55:39.366Z,1010.99
2019-02-21T05:56:39.306Z,1011.05
2019-02-21T05:57:39.291Z,1011.04
2019-02-21T05:58:39.305Z,1011.05
2019-02-21T05:59:39.277Z,1011.03
2019-02-21T06:00:39.274Z,1011.07
2019-02-21T06:01:39.264Z,1011.06
2019-02-21T06:02:39.248Z,1011.10
2019-02-21T06:03:39.243Z,1011.09
2019-02-21T06:04:39.251Z,1011.06
2019-02-21T06:05:39.220Z,1011.07
2019-02-21T06:06:39.211Z,1011.05
2019-02-21T06:07:39.212Z,1011.10
2019-02-21T06:08:39.209Z,1011.09
2019-02-21T06:09:39.180Z,1011.10
2019-02-21T06:10:39.165Z,1011.07
2019-02-21T06:11:39.178Z,1011.06
2019-02-21T06:12:39.137Z,1011.01
2019-02-21T06:13:39.139Z,1011.09
2019-02-21T06:14:39.119Z,1011.10
2019-02-21T06:15:39.119Z,1011.14
2019-02-21T06:16:39.159Z,1011.15
2019-02-21T06:17:39.112Z,1011.19
2019-02-21T06:18:39.116Z,1011.17
2019-02-21T06:19:39.059Z,1011.13
2019-02-21T06:20:39.050Z,1011.21
2019-02-21T06:21:39.044Z,1011.20
2019-02-21T06:22:39.042Z,1011.14
2019-02-21T06:23:39.492Z,1011.16
2019-02-21T06:24:39.004Z,1011.16
2019-02-21T06:25:50.585Z,1011.19
2019-02-21T06:26:40.011Z,1011.19
2019-02-21T06:27:38.988Z,1011.22
2019-02-21T06:28:38.969Z,1011.23
2019-02-21T06:29:38.962Z,1011.21
2019-02-21T06:30:38.949Z,1011.21
2019-02-21T06:31:38.935Z,1011.18
2019-02-21T06:32:40.764Z,1011.17
2019-02-21T06:33:38.912Z,1011.20
2019-02-21T06:34:38.903Z,1011.20
2019-02-21T06:35:38.904Z,1011.26
2019-02-21T06:36:38.915Z,1011.27
2019-02-21T06:37:38.889Z,1011.22
2019-02-21T06:38:38.876Z,1011.24
2019-02-21T06:39:38.845Z,1011.25
2019-02-21T06:40:38.902Z,1011.25
2019-02-21T06:41:39.006Z,1011.28
2019-02-21T06:42:38.809Z,1011.21
2019-02-21T06:43:38.801Z,1011.19
2019-02-21T06:44:38.791Z,1011.20
2019-02-21T06:45:38.822Z,1011.24
2019-02-21T06:46:38.788Z,1011.25
2019-02-21T06:47:38.784Z,1011.29
2019-02-21T06:48:38.757Z,1011.22
2019-02-21T06:49:38.739Z,1011.24
2019-02-21T06:50:38.726Z,1011.22
2019-02-21T06:51:38.713Z,1011.22
2019-02-21T06:52:40.596Z,1011.31
2019-02-21T06:53:38.697Z,1011.31
2019-02-21T06:54:38.689Z,1011.34
2019-02-21T06:55:38.673Z,1011.33
2019-02-21T06:56:38.659Z,1011.33
2019-02-21T06:57:38.657Z,1011.31
2019-02-21T06:58:38.672Z,1011.33
2019-02-21T06:59:43.411Z,1011.34
2019-02-21T07:00:39.621Z,1011.34
2019-02-21T07:01:38.615Z,1011.39
2019-02-21T07:02:38.605Z,1011.36
2019-02-21T07:03:38.590Z,1011.38
2019-02-21T07:04:38.589Z,1011.37
2019-02-21T07:05:38.644Z,1011.35
2019-02-21T07:06:39.312Z,1011.38
2019-02-21T07:07:38.548Z,1011.41
2019-02-21T07:08:40.123Z,1011.41
2019-02-21T07:09:38.593Z,1011.47
2019-02-21T07:10:38.516Z,1011.42
2019-02-21T07:11:38.510Z,1011.48
2019-02-21T07:12:38.520Z,1011.52
2019-02-21T07:13:38.487Z,1011.52
2019-02-21T07:14:38.480Z,1011.49
2019-02-21T07:15:38.455Z,1011.49
2019-02-21T07:16:38.450Z,1011.46
2019-02-21T07:17:48.487Z,1011.49
2019-02-21T07:18:40.820Z,1011.47
2019-02-21T07:19:38.422Z,1011.45
2019-02-21T07:20:39.792Z,1011.48
2019-02-21T07:21:38.393Z,1011.47
2019-02-21T07:22:38.453Z,1011.49
2019-02-21T07:23:43.528Z,1011.51
2019-02-21T07:24:39.361Z,1011.47
2019-02-21T07:25:38.363Z,1011.53
2019-02-21T07:26:38.406Z,1011.54
2019-02-21T07:27:38.336Z,1011.55
2019-02-21T07:28:38.314Z,1011.58
2019-02-21T07:29:38.918Z,1011.58
2019-02-21T07:30:38.297Z,1011.62
2019-02-21T07:31:38.288Z,1011.69
2019-02-21T07:32:38.307Z,1011.65
2019-02-21T07:33:38.270Z,1011.66
2019-02-21T07:34:38.252Z,1011.68
2019-02-21T07:35:38.253Z,1011.70
2019-02-21T07:36:38.233Z,1011.71
2019-02-21T07:37:38.213Z,1011.69
2019-02-21T07:38:38.235Z,1011.67
2019-02-21T07:39:38.248Z,1011.62
2019-02-21T07:40:38.188Z,1011.68
2019-02-21T07:41:38.184Z,1011.75
2019-02-21T07:42:38.170Z,1011.75
2019-02-21T07:43:38.151Z,1011.75
2019-02-21T07:44:38.156Z,1011.76
2019-02-21T07:45:38.178Z,1011.76
2019-02-21T07:46:38.117Z,1011.70
2019-02-21T07:47:38.122Z,1011.74
2019-02-21T07:48:38.097Z,1011.78
2019-02-21T07:49:38.085Z,1011.76
2019-02-21T07:50:38.083Z,1011.76
2019-02-21T07:51:38.120Z,1011.78
2019-02-21T07:52:38.076Z,1011.81
2019-02-21T07:53:38.052Z,1011.82
2019-02-21T07:54:38.034Z,1011.91
2019-02-21T07:55:38.027Z,1011.90
2019-02-21T07:56:41.864Z,1011.92
2019-02-21T07:57:38.000Z,1011.88
2019-02-21T07:58:39.618Z,1011.90
2019-02-21T07:59:37.985Z,1011.91
2019-02-21T08:00:37.978Z,1011.93
2019-02-21T08:01:37.953Z,1011.90
2019-02-21T08:02:37.958Z,1011.98
2019-02-21T08:03:44.986Z,1011.93
2019-02-21T08:04:38.962Z,1011.98
2019-02-21T08:05:37.920Z,1011.97
2019-02-21T08:06:37.914Z,1012.00
2019-02-21T08:07:37.898Z,1012.00
2019-02-21T08:08:37.881Z,1012.04
2019-02-21T08:09:37.884Z,1012.02
2019-02-21T08:10:37.894Z,1012.02
2019-02-21T08:11:37.864Z,1012.07
2019-02-21T08:12:40.442Z,1012.08
2019-02-21T08:13:37.832Z,1012.06
2019-02-21T08:14:37.830Z,1012.09
2019-02-21T08:15:37.807Z,1012.09
2019-02-21T08:16:37.844Z,1012.08
2019-02-21T08:17:37.801Z,1012.11
2019-02-21T08:18:37.771Z,1012.08
2019-02-21T08:19:37.779Z,1012.12
2019-02-21T08:20:40.870Z,1012.10
2019-02-21T08:21:37.857Z,1012.07
2019-02-21T08:22:37.780Z,1012.15
2019-02-21T08:23:37.721Z,1012.11
2019-02-21T08:24:37.712Z,1012.11
2019-02-21T08:25:37.703Z,1012.11
2019-02-21T08:26:37.698Z,1012.07
2019-02-21T08:27:37.675Z,1012.12
2019-02-21T08:28:37.679Z,1012.13
2019-02-21T08:29:37.656Z,1012.20
2019-02-21T08:30:37.649Z,1012.15
2019-02-21T08:31:37.633Z,1012.11
2019-02-21T08:32:37.631Z,1012.09
2019-02-21T08:33:37.607Z,1012.10
2019-02-21T08:34:37.644Z,1012.03
2019-02-21T08:35:37.624Z,1012.01
2019-02-21T08:36:37.623Z,1012.05
2019-02-21T08:37:37.647Z,1012.09
2019-02-21T08:38:37.555Z,1012.10
2019-02-21T08:39:37.548Z,1012.10
2019-02-21T08:40:37.545Z,1012.14
2019-02-21T08:41:37.521Z,1012.18
2019-02-21T08:42:37.517Z,1012.18
2019-02-21T08:43:37.531Z,1012.18
2019-02-21T08:44:37.492Z,1012.17
2019-02-21T08:45:37.500Z,1012.14
2019-02-21T08:46:37.470Z,1012.16
2019-02-21T08:47:37.475Z,1012.19
2019-02-21T08:48:40.286Z,1012.20
2019-02-21T08:49:37.467Z,1012.18
2019-02-21T08:50:37.425Z,1012.21
2019-02-21T08:51:37.436Z,1012.18
2019-02-21T08:52:37.404Z,1012.20
2019-02-21T08:53:37.413Z,1012.20
2019-02-21T08:54:37.388Z,1012.21
2019-02-21T08:55:37.391Z,1012.22
2019-02-21T08:56:37.383Z,1012.18
2019-02-21T08:57:37.357Z,1012.25
2019-02-21T08:58:37.334Z,1012.25
2019-02-21T08:59:37.349Z,1012.26
2019-02-21T09:00:37.317Z,1012.27
2019-02-21T09:01:37.303Z,1012.32
2019-02-21T09:02:37.314Z,1012.31
2019-02-21T09:03:37.325Z,1012.27
2019-02-21T09:04:37.299Z,1012.30
2019-02-21T09:05:37.261Z,1012.30
2019-02-21T09:06:37.259Z,1012.29
2019-02-21T09:07:37.245Z,1012.31
2019-02-21T09:08:37.378Z,1012.33
2019-02-21T09:09:37.269Z,1012.30
2019-02-21T09:10:37.250Z,1012.34
2019-02-21T09:11:37.197Z,1012.32
2019-02-21T09:12:37.185Z,1012.33
2019-02-21T09:13:37.172Z,1012.35
2019-02-21T09:14:37.190Z,1012.30
2019-02-21T09:15:37.163Z,1012.28
2019-02-21T09:16:37.204Z,1012.29
2019-02-21T09:17:37.142Z,1012.29
2019-02-21T09:18:37.119Z,1012.33
2019-02-21T09:19:37.111Z,1012.31
2019-02-21T09:20:37.114Z,1012.29
2019-02-21T09:21:37.113Z,1012.28
2019-02-21T09:22:37.113Z,1012.29
2019-02-21T09:23:37.067Z,1012.32
2019-02-21T09:24:40.109Z,1012.34
2019-02-21T09:25:38.078Z,1012.28
2019-02-21T09:26:37.041Z,1012.33
2019-02-21T09:27:37.045Z,1012.36
2019-02-21T09:28:37.033Z,1012.35
2019-02-21T09:29:37.007Z,1012.37
2019-02-21T09:30:36.987Z,1012.34
2019-02-21T09:31:36.997Z,1012.39
2019-02-21T09:32:36.970Z,1012.38
2019-02-21T09:33:37.342Z,1012.34
2019-02-21T09:34:36.955Z,1012.34
2019-02-21T09:35:36.946Z,1012.38
2019-02-21T09:36:36.937Z,1012.39
2019-02-21T09:37:36.934Z,1012.38
2019-02-21T09:38:36.913Z,1012.41
2019-02-21T09:39:36.895Z,1012.43
2019-02-21T09:40:36.897Z,1012.42
2019-02-21T09:41:36.878Z,1012.40
2019-02-21T09:42:36.882Z,1012.46
2019-02-21T09:43:36.880Z,1012.47
2019-02-21T09:44:36.842Z,1012.41
2019-02-21T09:45:36.835Z,1012.46
2019-02-21T09:46:36.832Z,1012.43
2019-02-21T09:47:36.808Z,1012.41
2019-02-21T09:48:36.802Z,1012.45
2019-02-21T09:49:36.875Z,1012.42
2019-02-21T09:50:36.771Z,1012.50
2019-02-21T09:51:36.777Z,1012.44
2019-02-21T09:52:36.753Z,1012.42
2019-02-21T09:53:36.744Z,1012.39
2019-02-21T09:54:36.727Z,1012.39
2019-02-21T09:55:36.744Z,1012.40
2019-02-21T09:56:36.714Z,1012.34
2019-02-21T09:57:36.755Z,1012.38
2019-02-21T09:58:36.690Z,1012.36
2019-02-21T09:59:36.760Z,1012.46
2019-02-21T10:00:36.692Z,1012.40
2019-02-21T10:01:36.658Z,1012.43
2019-02-21T10:02:36.640Z,1012.45
2019-02-21T10:03:36.665Z,1012.47
2019-02-21T10:04:36.622Z,1012.56
2019-02-21T10:05:36.605Z,1012.55
2019-02-21T10:06:36.601Z,1012.51
2019-02-21T10:07:37.225Z,1012.50
2019-02-21T10:08:36.633Z,1012.57
2019-02-21T10:09:36.562Z,1012.51
2019-02-21T10:10:36.599Z,1012.49
2019-02-21T10:11:36.548Z,1012.51
2019-02-21T10:12:36.537Z,1012.50
2019-02-21T10:13:36.536Z,1012.49
2019-02-21T10:14:36.538Z,1012.52
2019-02-21T10:15:36.498Z,1012.54
2019-02-21T10:16:36.488Z,1012.50
2019-02-21T10:17:36.487Z,1012.55
2019-02-21T10:18:36.485Z,1012.61
2019-02-21T10:19:36.458Z,1012.62
2019-02-21T10:20:36.463Z,1012.66
2019-02-21T10:21:37.091Z,1012.66
2019-02-21T10:22:36.420Z,1012.64
2019-02-21T10:23:36.434Z,1012.73
2019-02-21T10:24:36.429Z,1012.64
2019-02-21T10:25:36.395Z,1012.71
2019-02-21T10:26:36.376Z,1012.72
2019-02-21T10:27:36.383Z,1012.75
2019-02-21T10:28:36.358Z,1012.73
2019-02-21T10:29:36.359Z,1012.72
2019-02-21T10:30:36.538Z,1012.75
2019-02-21T10:31:36.328Z,1012.78
2019-02-21T10:32:36.348Z,1012.77
2019-02-21T10:33:46.274Z,1012.76
2019-02-21T10:34:42.926Z,1012.80
2019-02-21T10:35:37.281Z,1012.76
2019-02-21T10:36:36.267Z,1012.78
2019-02-21T10:37:36.258Z,1012.82
2019-02-21T10:38:36.262Z,1012.79
2019-02-21T10:39:36.280Z,1012.81
2019-02-21T10:40:36.266Z,1012.80
2019-02-21T10:41:36.238Z,1012.68
2019-02-21T10:42:36.221Z,1012.69
2019-02-21T10:43:36.215Z,1012.70
2019-02-21T10:44:36.213Z,1012.75
2019-02-21T10:45:47.072Z,1012.69
2019-02-21T10:46:37.175Z,1012.63
2019-02-21T10:47:36.147Z,1012.56
2019-02-21T10:48:36.175Z,1012.51
2019-02-21T10:49:36.145Z,1012.50
2019-02-21T10:50:36.121Z,1012.48
2019-02-21T10:51:36.119Z,1012.47
2019-02-21T10:52:36.112Z,1012.41
2019-02-21T10:53:36.101Z,1012.44
2019-02-21T10:54:36.086Z,1012.47
2019-02-21T10:55:36.108Z,1012.44
2019-02-21T10:56:36.058Z,1012.46
2019-02-21T10:57:36.044Z,1012.42
2019-02-21T10:58:36.034Z,1012.38
2019-02-21T10:59:46.265Z,1012.34
2019-02-21T11:00:37.025Z,1012.35
2019-02-21T11:01:36.028Z,1012.34
2019-02-21T11:02:35.998Z,1012.39
2019-02-21T11:03:35.981Z,1012.41
2019-02-21T11:04:35.974Z,1012.45
2019-02-21T11:05:35.965Z,1012.47
2019-02-21T11:06:35.953Z,1012.48
2019-02-21T11:07:35.959Z,1012.51
2019-02-21T11:08:35.920Z,1012.48
2019-02-21T11:09:35.935Z,1012.45
2019-02-21T11:10:35.924Z,1012.38
2019-02-21T11:11:35.895Z,1012.43
2019-02-21T11:12:35.894Z,1012.41
2019-02-21T11:13:35.868Z,1012.39
2019-02-21T11:14:47.038Z,1012.31
2019-02-21T11:15:36.850Z,1012.36
2019-02-21T11:16:35.841Z,1012.23
2019-02-21T11:17:35.824Z,1012.24
2019-02-21T11:18:35.822Z,1012.13
2019-02-21T11:19:35.832Z,1012.11
2019-02-21T11:20:35.790Z,1012.12
2019-02-21T11:21:35.779Z,1012.09
2019-02-21T11:22:35.777Z,1012.09
2019-02-21T11:23:35.784Z,1012.13
2019-02-21T11:24:35.753Z,1012.15
2019-02-21T11:25:35.738Z,1012.08
2019-02-21T11:26:35.757Z,1012.06
2019-02-21T11:27:35.719Z,1012.12
2019-02-21T11:28:35.708Z,1012.14
2019-02-21T11:29:35.704Z,1012.19
2019-02-21T11:30:35.681Z,1012.18
2019-02-21T11:31:35.668Z,1012.20
2019-02-21T11:32:35.674Z,1012.18
2019-02-21T11:33:35.686Z,1012.21
2019-02-21T11:34:38.067Z,1012.22
2019-02-21T11:35:35.630Z,1012.20
2019-02-21T11:36:35.630Z,1012.22
2019-02-21T11:37:43.253Z,1012.16
2019-02-21T11:38:36.596Z,1012.18
2019-02-21T11:39:35.611Z,1012.19
2019-02-21T11:40:35.629Z,1012.18
2019-02-21T11:41:35.579Z,1012.18
2019-02-21T11:42:35.555Z,1012.19
2019-02-21T11:43:35.548Z,1012.16
2019-02-21T11:44:35.528Z,1012.13
2019-02-21T11:45:35.516Z,1012.15
2019-02-21T11:46:35.518Z,1012.15
2019-02-21T11:47:35.515Z,1012.12
2019-02-21T11:48:35.491Z,1012.14
2019-02-21T11:49:35.523Z,1012.11
2019-02-21T11:50:35.467Z,1012.04
2019-02-21T11:51:35.470Z,1012.06
2019-02-21T11:52:35.452Z,1012.02
2019-02-21T11:53:37.993Z,1012.05
2019-02-21T11:54:35.420Z,1012.04
2019-02-21T11:55:35.448Z,1012.04
2019-02-21T11:56:35.407Z,1012.02
2019-02-21T11:57:35.388Z,1012.03
2019-02-21T11:58:35.399Z,1012.00
2019-02-21T11:59:35.395Z,1012.00
2019-02-21T12:00:35.358Z,1011.96
2019-02-21T12:01:35.412Z,1011.96
2019-02-21T12:02:38.779Z,1011.93
2019-02-21T12:03:35.315Z,1012.01
2019-02-21T12:04:35.327Z,1011.98
2019-02-21T12:05:35.298Z,1011.93